Accueil
METAR-TAF:

METAR-TAF

Aéroports :

Middle Peninsula Regional Airport

West Point, Virginie, États-Unis

latitude: 37-31-16N, longitude: 076-45-52W, altitude: 7 m

Observation

Le bulletin a été fait il y a 13 minutes, à 16:55 UTC
Vent 4 kt de sud/sud-ouest
Température 6°C
Humidité 65%
Pression 1030 hPa
Visibilité: 16.1 km
Ciel clair

METAR: KFYJ 141655Z AUTO 20004KT 10SM CLR 06/00 A3042 RMK AO1 T00561005

Heure: 12:08 (17:08 UTC)


TAF: absent

Observations et prévisions météorologiques de plus de 4000 aéroports (messages METAR et TAF).

Les stations disponibles sont représentées par des disques jaunes et rouges sur la carte.

Passer la souris dessus pour voir le nom de la station.

Cliquer dessus pour voir les observations et prévisions météorologiques.

Pour changer de carte: cliquez sur les boutons verts avec une croix noire pour zoomer, sur le bouton vert avec un tiret pour effectuer un zoom arrière, ou sur les flèches vertes pour les cartes adjacentes.


METAR-TAF: